Terminal Aerodrome Forecast
Issued by NWS Dallas/Fort Worth, TX

Home | Current Version | Previous Version | Text Only | Print | Product List | Glossary On
Versions: 1 2 3 4 5 6 7 8 9 10 11 12 13 14 15 16 17 18 19 20 21 22 23 24 25 26 27 28 29 30
000
FTUS44 KFWD 271340 AAA
TAFACT
TAF AMD
KACT 271340Z 2714/2812 15006KT P6SM OVC025
      TEMPO 2714/2716 BKN008
     FM271600 17008KT P6SM VCTS BKN015CB
     FM271900 18014KT P6SM SCT015 BKN050
     FM280300 19010KT P6SM OVC012=

USA.gov is the U.S. government's official web portal to all federal, state and local government web resources and services.